首页
METAR-TAF:

METAR-TAF

机场 :

Mission Field

利文斯顿, 蒙大拿州, 美国

纬度: 45-41-58N, 经度: 110-26-54W, 海拔: 1419米

当前天气观测

该预报发布于37分钟前的08:53 UTC
风速13节,风向西转西南
温度 4°C
湿度 87%
气压 1016 hPa
能見度: 16.1公里
多云层高于3000英尺
阴天层高于4200英尺
小雨

METAR: KLVM 130853Z AUTO 24013KT 10SM -RA BKN030 OVC042 04/02 A3000 RMK AO2 RAB01 SLP157 P0003 60004 T00440017 51024

时间: 02:30 (09:30 UTC)

预报

该预报发布于2小时和2分钟前的07:28 UTC
预报有效从13日的 07点(UTC)到 14日的 06点(UTC)
风速11节,风向西
能見度: 10公里
多云层高于2800英尺
阴天层高于4500英尺
小阵雨
从 13日的 1000点(UTC)
风速11节,风向西
能見度: 10公里
少量云层高于2500英尺
多云层高于4000英尺
附近有阵雨
从 13日的 1200点(UTC)
风速13节,风向西
能見度: 10公里
多云层高于6000英尺

TAF: KLVM 130728Z 1307/1406 28011KT P6SM -SHRA BKN028 OVC045 FM131000 26011KT P6SM VCSH FEW025 BKN040 FM131200 26013KT P6SM BKN060

超过4000个机场的气象观测和天气预报(METAR&TAF报告)。

可查询的气象台以黄色和红色小点在地图上表示。

将鼠标移到小点上方,可查看气象台名称。

然后点击查看天气观测和预报。

如需切换地图:点击带黑十字的绿色按钮放大地图;点击带横线的绿色按钮缩小地图;或者点击绿色箭头查看邻近地区的地图。


METAR-TAF: